Time;durP1;ratioP1;P1;durP2;ratioP2;P2;SDS_P1;SDS_P2;PMS_P1;PMS_P2;Temp;Humidity;BMP_temperature;BMP_pressure;BME280_temperature;BME280_humidity;BME280_pressure;Samples;Min_cycle;Max_cycle;Signal;HPM_P1;HPM_P2
2023/11/25 00:02:14;;;;;;;5.75;2.45;;;;;;;1.89;80.23;97727.09;4986235;28;104285;-70
2023/11/25 00:04:42;;;;;;;4.07;2.30;;;;;;;1.99;80.24;97728.72;4962218;28;103409;-70
2023/11/25 00:07:10;;;;;;;7.20;2.63;;;;;;;2.09;79.90;97723.47;4977360;28;103837;-70
2023/11/25 00:09:39;;;;;;;4.32;2.25;;;;;;;1.99;80.52;97730.50;4978618;28;103977;-70
2023/11/25 00:12:08;;;;;;;4.03;2.40;;;;;;;1.98;79.89;97721.84;4982551;28;103111;-70
2023/11/25 00:14:36;;;;;;;6.32;2.50;;;;;;;1.91;80.35;97714.69;4979184;28;103413;-70
2023/11/25 00:17:05;;;;;;;5.13;2.42;;;;;;;1.93;80.30;97721.44;4962312;28;102775;-70
2023/11/25 00:19:34;;;;;;;6.93;2.60;;;;;;;1.97;80.29;97735.03;4988738;28;103986;-70
2023/11/25 00:22:02;;;;;;;6.38;2.40;;;;;;;2.14;80.09;97749.22;4979813;28;103220;-70
2023/11/25 00:24:31;;;;;;;6.80;2.55;;;;;;;2.04;79.57;97756.22;4962304;28;103205;-70
2023/11/25 00:26:59;;;;;;;6.05;2.75;;;;;;;1.97;80.02;97763.78;4969201;28;103104;-70
2023/11/25 00:29:28;;;;;;;5.20;2.10;;;;;;;2.17;79.46;97771.63;4964206;28;102837;-70
2023/11/25 00:31:56;;;;;;;6.40;2.33;;;;;;;2.21;79.50;97767.75;4962484;28;103289;-70
2023/11/25 00:34:29;;;;;;;5.53;2.47;;;;;;;2.19;79.03;97774.91;4968112;28;103253;-70
2023/11/25 00:36:57;;;;;;;10.07;2.60;;;;;;;2.09;78.75;97780.94;4959889;28;102681;-70
2023/11/25 00:39:29;;;;;;;12.82;2.70;;;;;;;2.05;79.05;97786.59;4961726;28;103046;-70
2023/11/25 00:41:58;;;;;;;5.78;2.17;;;;;;;2.07;78.55;97776.81;4982038;28;103371;-70
2023/11/25 00:44:26;;;;;;;6.43;2.75;;;;;;;2.17;78.88;97784.69;4981512;28;102993;-70
2023/11/25 00:46:57;;;;;;;8.13;2.95;;;;;;;2.16;78.06;97773.38;4979100;28;102604;-70
2023/11/25 00:49:29;;;;;;;6.20;2.08;;;;;;;2.13;78.30;97791.97;4964192;28;102747;-70
2023/11/25 00:51:57;;;;;;;4.93;2.30;;;;;;;2.20;78.53;97800.06;4964367;28;103203;-70
2023/11/25 00:54:25;;;;;;;6.10;2.17;;;;;;;2.14;77.78;97804.06;4959039;28;103509;-70
2023/11/25 00:56:54;;;;;;;7.43;3.00;;;;;;;2.23;77.54;97810.28;4959836;28;103233;-70
2023/11/25 00:59:22;;;;;;;4.65;2.30;;;;;;;2.24;76.89;97806.66;4985131;28;103996;-70
2023/11/25 01:01:52;;;;;;;5.88;2.45;;;;;;;2.08;77.04;97815.88;4959200;28;102736;-70
2023/11/25 01:04:20;;;;;;;5.13;2.50;;;;;;;2.18;77.63;97804.63;4975125;28;103199;-70
2023/11/25 01:06:50;;;;;;;10.20;2.60;;;;;;;2.21;76.97;97820.03;4977147;28;102561;-70
2023/11/25 01:09:19;;;;;;;10.68;2.60;;;;;;;1.97;76.33;97836.91;4971552;28;102977;-70
2023/11/25 01:11:47;;;;;;;6.68;2.20;;;;;;;2.04;76.76;97851.06;4967108;28;103274;-70
2023/11/25 01:14:16;;;;;;;7.22;2.58;;;;;;;2.02;76.65;97846.94;4964872;28;103053;-70
2023/11/25 01:16:44;;;;;;;5.32;2.60;;;;;;;2.17;76.20;97860.44;4981410;28;103107;-70
2023/11/25 01:19:12;;;;;;;5.60;2.25;;;;;;;2.25;76.16;97856.16;4964925;28;104094;-70
2023/11/25 01:21:41;;;;;;;4.65;2.15;;;;;;;1.98;75.85;97867.28;4986923;28;103459;-70
2023/11/25 01:24:11;;;;;;;6.40;2.83;;;;;;;1.82;75.24;97871.22;4990116;28;103719;-70
2023/11/25 01:26:39;;;;;;;6.43;2.40;;;;;;;1.95;75.97;97872.75;4960136;28;102648;-71
2023/11/25 01:29:08;;;;;;;3.85;1.80;;;;;;;1.98;75.49;97870.72;4987861;28;102917;-70
2023/11/25 01:31:36;;;;;;;6.85;2.33;;;;;;;1.71;75.38;97880.94;4964815;28;103359;-70
2023/11/25 01:34:04;;;;;;;4.80;2.00;;;;;;;1.66;75.42;97889.16;4974853;28;103128;-70
2023/11/25 01:36:32;;;;;;;8.00;1.73;;;;;;;1.79;75.71;97894.97;4960305;28;103055;-70
2023/11/25 01:39:00;;;;;;;4.55;2.10;;;;;;;1.79;76.34;97892.38;4982445;28;102689;-70
2023/11/25 01:41:30;;;;;;;7.65;2.20;;;;;;;1.73;76.24;97905.13;4956850;28;104316;-70
2023/11/25 01:43:59;;;;;;;4.53;2.10;;;;;;;1.82;75.38;97909.56;4983704;28;102976;-70
2023/11/25 01:46:39;;;;;;;5.13;2.08;;;;;;;1.77;75.79;97904.75;4965432;28;103860;-70
2023/11/25 01:49:08;;;;;;;4.13;2.10;;;;;;;1.73;75.71;97905.97;4966330;28;104278;-71
2023/11/25 01:51:43;;;;;;;4.28;2.15;;;;;;;1.67;76.37;97916.94;4981912;28;104615;-70
2023/11/25 01:54:14;;;;;;;5.63;2.22;;;;;;;1.63;75.71;97920.75;4982163;28;103365;-70
2023/11/25 01:56:47;;;;;;;6.07;2.10;;;;;;;1.68;76.20;97923.81;4963099;28;102796;-70
2023/11/25 01:59:16;;;;;;;3.80;2.00;;;;;;;1.66;76.62;97920.50;4966803;28;102801;-70
2023/11/25 02:01:46;;;;;;;3.72;2.00;;;;;;;1.67;76.00;97924.75;4963797;28;103292;-69
2023/11/25 02:04:15;;;;;;;5.70;2.45;;;;;;;1.61;76.20;97928.72;4965305;28;103473;-70
2023/11/25 02:06:45;;;;;;;5.25;2.25;;;;;;;1.58;76.07;97933.38;4980744;28;102684;-69
2023/11/25 02:09:14;;;;;;;3.95;2.47;;;;;;;1.58;75.73;97928.16;4967742;28;102853;-69
2023/11/25 02:11:56;;;;;;;10.10;2.50;;;;;;;1.62;76.26;97934.75;4979957;28;102948;-69
2023/11/25 02:14:26;;;;;;;6.32;2.42;;;;;;;1.58;75.98;97939.41;4973120;28;103362;-69
2023/11/25 02:16:55;;;;;;;7.20;2.40;;;;;;;1.71;75.99;97946.22;4965907;28;102654;-69
2023/11/25 02:19:25;;;;;;;5.28;2.53;;;;;;;1.51;75.85;97953.94;4974994;28;102816;-70
2023/11/25 02:21:55;;;;;;;4.25;2.20;;;;;;;1.56;76.01;97956.16;4965005;28;103400;-69
2023/11/25 02:24:27;;;;;;;5.38;2.20;;;;;;;1.46;76.35;97951.72;4965676;28;103249;-69
2023/11/25 02:26:59;;;;;;;4.95;2.20;;;;;;;1.52;76.01;97952.16;4960297;28;102646;-69
2023/11/25 02:29:28;;;;;;;3.90;2.53;;;;;;;1.53;76.41;97954.63;4985118;28;102715;-69
2023/11/25 02:31:58;;;;;;;8.32;2.92;;;;;;;1.32;76.19;97965.09;4984153;28;103480;-69
2023/11/25 02:34:27;;;;;;;5.18;2.25;;;;;;;1.53;76.30;97952.03;4963670;28;104235;-70
2023/11/25 02:36:56;;;;;;;5.25;2.38;;;;;;;1.51;76.61;97959.16;4965805;28;102619;-69
2023/11/25 02:39:27;;;;;;;10.55;2.38;;;;;;;1.36;76.93;97958.66;4986618;28;103141;-69
2023/11/25 02:41:56;;;;;;;3.83;2.03;;;;;;;1.42;76.72;97960.75;4982945;28;103309;-70
2023/11/25 02:44:27;;;;;;;8.75;2.55;;;;;;;1.37;76.12;97965.53;4963446;28;103130;-70
2023/11/25 02:46:55;;;;;;;8.48;2.53;;;;;;;1.28;76.29;97969.72;4985443;28;103054;-69
2023/11/25 02:49:23;;;;;;;6.53;2.28;;;;;;;1.28;76.99;97968.91;4983700;28;102704;-69
2023/11/25 02:51:54;;;;;;;6.00;2.47;;;;;;;1.24;77.32;97972.72;4965457;28;103219;-69
2023/11/25 02:54:23;;;;;;;5.65;2.33;;;;;;;1.45;76.77;97980.56;4981566;28;103359;-69
2023/11/25 02:56:52;;;;;;;5.82;2.40;;;;;;;1.44;76.62;97979.72;4960707;28;102868;-70
2023/11/25 02:59:22;;;;;;;6.00;2.30;;;;;;;1.49;76.40;97988.00;4967151;28;102770;-70
2023/11/25 03:01:52;;;;;;;7.75;2.80;;;;;;;1.49;76.19;97995.84;4979235;28;104040;-69
2023/11/25 03:04:23;;;;;;;7.28;2.75;;;;;;;1.48;76.01;97986.34;4986300;28;103309;-69
2023/11/25 03:06:51;;;;;;;5.28;2.97;;;;;;;1.44;76.05;97994.53;4961558;28;102822;-70
2023/11/25 03:09:21;;;;;;;4.60;2.47;;;;;;;1.53;76.59;98003.41;4965336;28;102613;-70
2023/11/25 03:11:49;;;;;;;5.88;2.63;;;;;;;1.43;76.08;98006.78;4965609;28;103290;-70
2023/11/25 03:14:19;;;;;;;5.88;2.67;;;;;;;1.53;76.61;98008.63;4982015;28;103282;-69
2023/11/25 03:16:49;;;;;;;6.53;2.75;;;;;;;1.46;76.75;98019.56;4982058;28;102919;-69
2023/11/25 03:19:18;;;;;;;8.32;2.80;;;;;;;1.50;76.06;98017.53;4982766;28;104176;-69
2023/11/25 03:21:50;;;;;;;5.05;2.55;;;;;;;1.53;76.14;98021.66;4982509;28;103254;-70
2023/11/25 03:24:21;;;;;;;5.10;2.38;;;;;;;1.56;76.22;98024.00;4986167;28;103345;-71
2023/11/25 03:26:49;;;;;;;5.70;2.50;;;;;;;1.44;76.04;98024.09;4963929;28;102993;-69
2023/11/25 03:29:20;;;;;;;5.63;2.97;;;;;;;1.52;76.32;98027.84;4965356;28;104234;-69
2023/11/25 03:31:48;;;;;;;7.13;2.53;;;;;;;1.48;76.18;98035.09;4959928;28;104506;-69
2023/11/25 03:34:16;;;;;;;7.90;2.65;;;;;;;1.48;76.39;98035.94;4986627;28;103226;-68
2023/11/25 03:36:44;;;;;;;9.60;3.22;;;;;;;1.42;75.79;98033.00;4980829;28;103716;-68
2023/11/25 03:39:13;;;;;;;5.75;3.00;;;;;;;1.57;75.50;98041.34;4960349;28;102882;-70
2023/11/25 03:41:42;;;;;;;9.48;3.08;;;;;;;1.64;75.26;98037.28;4966933;28;104626;-70
2023/11/25 03:44:11;;;;;;;8.27;2.97;;;;;;;1.54;75.31;98033.78;4966968;28;103061;-70
2023/11/25 03:46:42;;;;;;;8.82;2.80;;;;;;;1.59;75.50;98044.66;4982645;28;102665;-70
2023/11/25 03:49:12;;;;;;;8.93;2.58;;;;;;;1.47;75.36;98044.72;4965894;28;103968;-70
2023/11/25 03:51:40;;;;;;;5.80;2.90;;;;;;;1.53;75.73;98039.94;4967254;28;104498;-69
2023/11/25 03:54:09;;;;;;;6.63;2.95;;;;;;;1.48;75.77;98042.91;4967862;28;103514;-70
2023/11/25 03:56:37;;;;;;;6.85;3.38;;;;;;;1.56;75.04;98048.34;4982508;28;102714;-70
2023/11/25 03:59:05;;;;;;;7.28;2.85;;;;;;;1.48;75.47;98048.97;4960325;28;103030;-70
2023/11/25 04:01:33;;;;;;;6.20;2.47;;;;;;;1.49;75.54;98042.81;4963472;28;103772;-70
2023/11/25 04:04:03;;;;;;;7.95;2.97;;;;;;;1.40;75.62;98046.19;4981401;28;102990;-62
2023/11/25 04:06:32;;;;;;;9.15;2.92;;;;;;;1.36;75.54;98063.03;4980351;28;103290;-61
2023/11/25 04:09:00;;;;;;;6.55;3.15;;;;;;;1.35;75.33;98053.56;4982974;28;104090;-69
2023/11/25 04:11:29;;;;;;;7.90;2.90;;;;;;;1.34;75.20;98064.94;4982221;28;103849;-69
2023/11/25 04:13:57;;;;;;;8.13;3.17;;;;;;;1.40;75.29;98066.22;4978410;28;103199;-69
2023/11/25 04:16:26;;;;;;;11.70;3.95;;;;;;;1.31;75.11;98073.84;4981182;28;103084;-69
2023/11/25 04:18:55;;;;;;;5.97;2.80;;;;;;;1.38;74.72;98079.38;4968458;28;102830;-69
2023/11/25 04:21:25;;;;;;;7.35;2.78;;;;;;;1.28;75.41;98081.91;4963159;28;103307;-68
2023/11/25 04:23:55;;;;;;;5.53;2.42;;;;;;;1.38;74.99;98083.78;4982462;28;103347;-69
2023/11/25 04:26:24;;;;;;;6.03;2.40;;;;;;;1.33;75.17;98087.56;4958220;28;102723;-68
2023/11/25 04:28:53;;;;;;;5.63;3.00;;;;;;;1.28;75.58;98097.56;4958000;28;103285;-68
2023/11/25 04:31:21;;;;;;;7.50;2.72;;;;;;;1.31;74.95;98094.72;4980970;28;103262;-68
2023/11/25 04:33:49;;;;;;;6.38;2.80;;;;;;;1.38;75.06;98092.44;4959403;28;103108;-67
2023/11/25 04:36:18;;;;;;;5.70;2.60;;;;;;;1.38;74.91;98108.09;4979762;28;103143;-68
2023/11/25 04:38:48;;;;;;;8.90;2.75;;;;;;;1.28;74.82;98109.78;4973865;28;102772;-68
2023/11/25 04:41:16;;;;;;;10.10;3.42;;;;;;;1.27;74.51;98108.97;4978895;28;103188;-68
2023/11/25 04:43:44;;;;;;;5.22;2.47;;;;;;;1.34;74.78;98114.50;4984307;28;103240;-68
2023/11/25 04:46:12;;;;;;;7.50;2.58;;;;;;;1.23;75.03;98117.16;4984913;28;102749;-68
2023/11/25 04:48:40;;;;;;;5.63;2.63;;;;;;;1.21;74.84;98116.47;4975638;28;103650;-65
2023/11/25 04:51:09;;;;;;;5.97;2.30;;;;;;;1.23;74.56;98118.00;4978813;28;103295;-65
2023/11/25 04:53:37;;;;;;;4.32;2.17;;;;;;;1.30;74.59;98121.75;4983295;28;103527;-65
2023/11/25 04:56:08;;;;;;;4.10;2.33;;;;;;;1.37;74.90;98118.66;4968884;28;102695;-66
2023/11/25 04:58:39;;;;;;;6.03;2.50;;;;;;;1.37;74.25;98116.06;4972811;28;103908;-65
2023/11/25 05:01:08;;;;;;;7.18;2.30;;;;;;;1.24;74.10;98124.03;4981079;28;103325;-65
2023/11/25 05:03:36;;;;;;;7.20;3.25;;;;;;;1.24;74.31;98126.66;4974169;28;103235;-65
2023/11/25 05:06:09;;;;;;;8.15;2.90;;;;;;;1.20;74.22;98122.63;4981790;28;102668;-69
2023/11/25 05:08:39;;;;;;;4.53;2.20;;;;;;;1.28;73.76;98121.03;4983992;28;104410;-68
2023/11/25 05:11:09;;;;;;;8.00;2.15;;;;;;;1.34;74.76;98130.19;4974224;28;103893;-68
2023/11/25 05:13:37;;;;;;;8.20;2.80;;;;;;;1.16;74.75;98125.47;4962550;28;103210;-68
2023/11/25 05:16:06;;;;;;;7.35;2.80;;;;;;;1.12;74.05;98125.84;4966061;28;102692;-68
2023/11/25 05:18:34;;;;;;;4.15;2.25;;;;;;;1.13;74.33;98128.31;4982585;28;102745;-69
2023/11/25 05:21:03;;;;;;;5.57;2.42;;;;;;;1.20;74.90;98138.28;4986268;28;103750;-69
2023/11/25 05:23:31;;;;;;;6.10;2.45;;;;;;;1.13;74.18;98133.53;4986454;28;103252;-68
2023/11/25 05:25:59;;;;;;;5.82;2.20;;;;;;;1.19;74.64;98126.19;4983852;28;102637;-68
2023/11/25 05:28:28;;;;;;;3.47;2.00;;;;;;;1.16;74.20;98130.69;4983619;28;103305;-69
2023/11/25 05:30:56;;;;;;;5.68;2.13;;;;;;;1.16;74.58;98133.28;4984195;28;103995;-68
2023/11/25 05:33:24;;;;;;;4.72;2.10;;;;;;;1.09;74.24;98131.31;4962547;28;104208;-68
2023/11/25 05:35:55;;;;;;;7.38;2.72;;;;;;;1.10;74.76;98130.34;4985604;28;102638;-69
2023/11/25 05:38:24;;;;;;;4.30;2.15;;;;;;;1.10;74.68;98128.59;4989683;28;103903;-71
2023/11/25 05:40:52;;;;;;;5.75;2.35;;;;;;;1.09;74.93;98131.31;4984983;28;103875;-70
2023/11/25 05:43:23;;;;;;;10.27;3.15;;;;;;;1.07;74.19;98136.63;4987092;28;103224;-70
2023/11/25 05:45:53;;;;;;;4.93;2.33;;;;;;;1.08;74.89;98146.13;4986002;28;102562;-70
2023/11/25 05:52:40;;;;;;;4.88;2.10;;;;;;;1.13;75.52;98150.97;4977718;28;103235;-71
2023/11/25 05:55:08;;;;;;;5.18;2.20;;;;;;;1.15;74.63;98151.66;4988153;28;103187;-71
2023/11/25 05:57:36;;;;;;;4.57;2.33;;;;;;;1.15;74.53;98152.53;4981533;28;102739;-71
2023/11/25 06:00:05;;;;;;;5.15;2.33;;;;;;;1.10;74.74;98139.00;4985116;28;103924;-71
2023/11/25 06:02:40;;;;;;;6.03;2.60;;;;;;;1.07;75.08;98144.44;4984553;28;104460;-70
2023/11/25 06:05:08;;;;;;;5.47;2.42;;;;;;;1.04;74.76;98147.31;4962717;28;103192;-71
2023/11/25 06:07:37;;;;;;;8.85;2.67;;;;;;;1.06;74.83;98140.22;4988134;28;102853;-71
2023/11/25 06:10:07;;;;;;;7.63;2.53;;;;;;;1.01;74.88;98146.72;4983556;28;102702;-70
2023/11/25 06:12:35;;;;;;;4.35;2.10;;;;;;;1.01;75.50;98142.34;4980010;28;103050;-70
2023/11/25 06:15:15;;;;;;;4.38;1.98;;;;;;;1.06;75.25;98148.03;4986708;28;103458;-70
2023/11/25 06:17:46;;;;;;;3.85;1.95;;;;;;;1.09;75.02;98142.56;4986520;28;102656;-70
2023/11/25 06:20:17;;;;;;;8.43;2.23;;;;;;;1.03;75.36;98140.44;4967374;28;102757;-70
2023/11/25 06:22:45;;;;;;;7.53;3.13;;;;;;;1.09;75.64;98147.78;4985351;28;103249;-70
2023/11/25 06:25:15;;;;;;;6.85;2.40;;;;;;;1.14;75.88;98132.59;4984769;28;103188;-70
2023/11/25 06:27:43;;;;;;;2.53;1.60;;;;;;;1.11;75.69;98130.25;4985483;28;102633;-70
2023/11/25 06:30:16;;;;;;;4.35;2.00;;;;;;;1.16;75.74;98143.72;4977490;28;102713;-70
2023/11/25 06:32:44;;;;;;;6.97;2.70;;;;;;;1.21;75.55;98150.38;4965135;28;104622;-70
2023/11/25 06:35:15;;;;;;;4.20;2.00;;;;;;;1.24;75.54;98139.69;4975371;28;103309;-70
2023/11/25 06:37:43;;;;;;;7.97;3.70;;;;;;;1.26;75.40;98141.22;4981396;28;102793;-70
2023/11/25 06:40:14;;;;;;;10.43;5.78;;;;;;;1.19;75.38;98136.63;4959389;28;102705;-71
2023/11/25 06:42:42;;;;;;;8.48;4.72;;;;;;;1.28;75.88;98133.28;4977618;28;103774;-71
2023/11/25 06:45:10;;;;;;;10.60;5.00;;;;;;;1.30;74.63;98144.41;4978549;28;103212;-71
2023/11/25 06:47:39;;;;;;;7.47;3.15;;;;;;;1.39;74.76;98137.63;4977762;28;102598;-70
2023/11/25 06:50:08;;;;;;;6.72;2.80;;;;;;;1.42;74.85;98137.38;4978652;28;102790;-68
2023/11/25 06:52:38;;;;;;;7.82;2.67;;;;;;;1.44;74.63;98141.53;4956276;28;104281;-67
2023/11/25 06:55:09;;;;;;;7.35;2.88;;;;;;;1.46;74.68;98152.66;4981088;28;103324;-68
2023/11/25 06:57:38;;;;;;;6.25;2.53;;;;;;;1.53;74.55;98160.00;4978372;28;102555;-68
2023/11/25 07:00:10;;;;;;;7.45;2.88;;;;;;;1.48;74.11;98161.19;4981412;28;102630;-68
2023/11/25 07:02:39;;;;;;;4.88;2.30;;;;;;;1.53;74.66;98170.44;4976014;28;103825;-68
2023/11/25 07:05:08;;;;;;;6.63;2.60;;;;;;;1.50;74.97;98155.84;4982350;28;103805;-67
2023/11/25 07:07:38;;;;;;;6.38;2.30;;;;;;;1.48;75.21;98161.19;4983135;28;102624;-68
2023/11/25 07:10:09;;;;;;;4.45;2.20;;;;;;;1.52;75.10;98161.78;4960946;28;102662;-68
2023/11/25 07:12:38;;;;;;;6.85;2.65;;;;;;;1.46;74.79;98160.47;4964594;28;104193;-68
2023/11/25 07:15:07;;;;;;;5.63;2.22;;;;;;;1.58;74.98;98160.47;4977094;28;103246;-69
2023/11/25 07:17:36;;;;;;;4.40;2.10;;;;;;;1.65;74.79;98172.03;4964030;28;102721;-69
2023/11/25 07:20:11;;;;;;;5.18;2.10;;;;;;;1.60;74.85;98169.81;4976384;28;103860;-68
2023/11/25 07:22:42;;;;;;;4.68;2.65;;;;;;;1.61;74.77;98178.47;4973818;28;103248;-70
2023/11/25 07:25:12;;;;;;;7.63;2.55;;;;;;;1.71;74.93;98184.59;4975920;28;103359;-71
2023/11/25 07:27:43;;;;;;;3.67;1.83;;;;;;;1.78;74.81;98183.16;4983677;28;102562;-71
2023/11/25 07:30:12;;;;;;;6.03;3.38;;;;;;;1.82;74.61;98192.41;4956348;28;102691;-71
2023/11/25 07:32:40;;;;;;;4.38;2.10;;;;;;;1.82;74.48;98197.63;4962004;28;103042;-71
2023/11/25 07:35:10;;;;;;;6.45;2.92;;;;;;;1.85;73.89;98201.78;4984392;28;103214;-70
2023/11/25 07:37:39;;;;;;;7.05;2.72;;;;;;;1.90;74.63;98204.00;4964619;28;102786;-71
2023/11/25 07:40:13;;;;;;;6.47;3.00;;;;;;;1.93;74.11;98209.00;4960749;28;104381;-71
2023/11/25 07:42:44;;;;;;;8.20;2.75;;;;;;;1.84;74.05;98200.13;4977931;28;103255;-71
2023/11/25 07:45:12;;;;;;;7.15;2.47;;;;;;;1.86;74.09;98203.44;4983096;28;103299;-71
2023/11/25 07:47:43;;;;;;;6.60;2.30;;;;;;;1.91;74.21;98216.09;4977986;28;102696;-71
2023/11/25 07:50:12;;;;;;;8.38;3.60;;;;;;;1.90;73.79;98207.44;4980837;28;102672;-71
2023/11/25 07:52:40;;;;;;;5.78;2.50;;;;;;;1.94;73.54;98208.00;4975626;28;104395;-71
2023/11/25 07:55:10;;;;;;;6.50;2.40;;;;;;;2.01;73.59;98211.78;4980197;28;103201;-70
2023/11/25 07:57:39;;;;;;;4.47;1.88;;;;;;;2.08;73.37;98207.72;4980082;28;102772;-70
2023/11/25 08:00:12;;;;;;;4.72;2.20;;;;;;;2.05;73.55;98207.97;4982775;28;102674;-70
2023/11/25 08:02:41;;;;;;;7.18;2.58;;;;;;;2.09;73.29;98198.91;4984037;28;104199;-68
2023/11/25 08:05:21;;;;;;;4.25;2.20;;;;;;;2.11;73.22;98207.47;4983868;28;103011;-70
2023/11/25 08:07:53;;;;;;;5.68;2.80;;;;;;;2.14;73.00;98206.41;4979550;28;102665;-68
2023/11/25 08:10:31;;;;;;;5.40;2.47;;;;;;;2.19;73.08;98208.59;4979030;28;102981;-68
2023/11/25 08:12:59;;;;;;;8.68;3.13;;;;;;;2.19;72.42;98209.47;4980060;28;103430;-68
2023/11/25 08:15:28;;;;;;;4.93;2.95;;;;;;;2.18;73.28;98214.81;4984758;28;103292;-70
2023/11/25 08:17:56;;;;;;;6.43;2.80;;;;;;;2.19;73.06;98212.06;4982504;28;103728;-70
2023/11/25 08:20:25;;;;;;;5.93;2.47;;;;;;;2.28;72.93;98200.84;4975742;28;102715;-71
2023/11/25 08:22:53;;;;;;;7.25;2.78;;;;;;;2.26;72.58;98204.53;4970891;28;103331;-68
2023/11/25 08:25:24;;;;;;;8.05;2.30;;;;;;;2.38;72.82;98193.06;4980459;28;103281;-71
2023/11/25 08:27:53;;;;;;;5.70;2.45;;;;;;;2.48;72.15;98193.94;4978553;28;102922;-68
2023/11/25 08:30:21;;;;;;;5.13;2.40;;;;;;;2.55;72.66;98203.91;4981774;28;104054;-68
2023/11/25 08:32:51;;;;;;;6.68;2.50;;;;;;;2.52;72.04;98204.16;4965156;28;104197;-71
2023/11/25 08:35:19;;;;;;;7.43;2.10;;;;;;;2.84;71.66;98214.47;4988857;28;103109;-71
2023/11/25 08:37:52;;;;;;;4.97;2.37;;;;;;;2.82;71.19;98212.00;4988877;28;102879;-70
2023/11/25 08:40:21;;;;;;;6.05;2.40;;;;;;;2.93;71.37;98212.88;4979932;28;103969;-68
2023/11/25 08:42:51;;;;;;;3.78;2.10;;;;;;;2.89;72.03;98211.50;4964075;28;103382;-71
2023/11/25 08:45:20;;;;;;;4.38;2.08;;;;;;;3.06;71.12;98213.47;4978730;28;103290;-68
2023/11/25 08:47:51;;;;;;;8.52;3.45;;;;;;;2.90;70.43;98213.97;4984672;28;102612;-70
2023/11/25 08:50:19;;;;;;;8.50;2.20;;;;;;;3.11;70.58;98213.91;4987376;28;103827;-68
2023/11/25 08:52:48;;;;;;;5.05;3.25;;;;;;;2.84;70.57;98214.47;4978331;28;103230;-68
2023/11/25 08:55:19;;;;;;;7.28;2.85;;;;;;;2.91;70.96;98214.78;4978701;28;103157;-68
2023/11/25 08:57:48;;;;;;;6.22;2.72;;;;;;;3.07;70.61;98215.13;4980647;28;102683;-68
2023/11/25 09:00:20;;;;;;;7.85;2.67;;;;;;;2.90;70.45;98218.38;4986111;28;102686;-68
2023/11/25 09:02:50;;;;;;;8.05;2.38;;;;;;;2.87;71.60;98222.09;4980638;28;103980;-71
2023/11/25 09:05:21;;;;;;;4.53;2.10;;;;;;;2.97;71.73;98222.13;4987542;28;103187;-69
2023/11/25 09:07:51;;;;;;;5.75;2.42;;;;;;;2.84;71.03;98213.66;4984664;28;103142;-71
2023/11/25 09:10:21;;;;;;;6.72;2.60;;;;;;;2.90;70.20;98218.38;4988163;28;102711;-71
2023/11/25 09:12:51;;;;;;;7.72;3.85;;;;;;;2.93;70.38;98212.88;4985855;28;103360;-68
2023/11/25 09:15:21;;;;;;;6.38;2.80;;;;;;;3.13;70.45;98219.00;4980243;28;103218;-68
2023/11/25 09:17:50;;;;;;;6.82;2.90;;;;;;;3.09;70.47;98212.38;4980712;28;103752;-67
2023/11/25 09:20:22;;;;;;;6.10;2.80;;;;;;;3.17;69.78;98196.88;4978832;28;102601;-67
2023/11/25 09:22:52;;;;;;;6.20;2.42;;;;;;;3.38;70.01;98198.56;4962344;28;104022;-67
2023/11/25 09:25:20;;;;;;;9.23;3.20;;;;;;;3.48;69.19;98199.41;4961701;28;103349;-68
2023/11/25 09:27:50;;;;;;;5.93;2.67;;;;;;;3.54;69.34;98191.00;4982021;28;103143;-68
2023/11/25 09:30:18;;;;;;;6.78;2.75;;;;;;;3.59;69.79;98187.97;4969664;28;102808;-68
2023/11/25 09:32:47;;;;;;;12.43;2.97;;;;;;;3.53;69.88;98189.34;4958727;28;103742;-68
2023/11/25 09:35:15;;;;;;;8.02;3.20;;;;;;;3.36;70.60;98182.97;4983307;28;103437;-68
2023/11/25 09:37:44;;;;;;;7.55;3.33;;;;;;;3.37;70.40;98179.41;4985931;28;102822;-68
2023/11/25 09:40:15;;;;;;;9.48;3.80;;;;;;;3.43;70.48;98183.28;4983229;28;102750;-67
2023/11/25 09:42:46;;;;;;;6.97;2.83;;;;;;;3.64;70.30;98170.91;4977840;28;103814;-68
2023/11/25 09:45:15;;;;;;;6.45;3.75;;;;;;;3.59;69.83;98167.88;4964988;28;103309;-68
2023/11/25 09:47:47;;;;;;;9.18;3.20;;;;;;;3.65;69.79;98164.72;4963268;28;103056;-67
2023/11/25 09:50:16;;;;;;;10.73;2.90;;;;;;;3.78;69.77;98174.88;4961835;28;102705;-68
2023/11/25 09:52:50;;;;;;;9.23;3.63;;;;;;;3.91;69.00;98168.56;4978576;28;104260;-67
2023/11/25 09:55:22;;;;;;;8.85;3.67;;;;;;;3.76;69.89;98168.13;4986708;28;103275;-68
2023/11/25 09:57:58;;;;;;;13.18;3.83;;;;;;;3.84;68.87;98162.19;4990522;28;102619;-72
2023/11/25 10:00:27;;;;;;;9.80;3.53;;;;;;;4.04;69.25;98161.22;4968283;28;103631;-70
2023/11/25 10:03:00;;;;;;;12.85;3.80;;;;;;;4.14;68.55;98156.00;4979337;28;103674;-70
2023/11/25 10:05:29;;;;;;;10.05;3.75;;;;;;;4.10;68.91;98144.13;4986955;28;103188;-71
2023/11/25 10:08:00;;;;;;;8.35;2.70;;;;;;;4.22;68.52;98143.00;4984299;28;102606;-69
2023/11/25 10:10:29;;;;;;;8.98;3.53;;;;;;;4.25;68.28;98147.13;4980221;28;103974;-68
2023/11/25 10:12:57;;;;;;;9.15;3.67;;;;;;;4.51;68.66;98136.00;4976119;28;103788;-68
2023/11/25 10:15:26;;;;;;;10.63;3.08;;;;;;;4.27;68.26;98153.91;4986670;28;103229;-69
2023/11/25 10:17:57;;;;;;;9.85;4.03;;;;;;;4.41;68.31;98147.34;4987667;28;102554;-71
2023/11/25 10:20:30;;;;;;;14.95;3.72;;;;;;;4.30;68.05;98153.59;4987564;28;104278;-69
2023/11/25 10:22:58;;;;;;;10.25;4.07;;;;;;;4.29;68.26;98161.59;4975609;28;103769;-69
2023/11/25 10:25:27;;;;;;;10.48;4.05;;;;;;;4.35;67.78;98158.44;4982399;28;103240;-68
2023/11/25 10:27:56;;;;;;;9.85;4.25;;;;;;;4.27;67.57;98160.91;4966283;28;103359;-70
2023/11/25 10:30:25;;;;;;;9.10;4.40;;;;;;;4.30;67.64;98158.03;4979998;28;103512;-71
2023/11/25 10:32:56;;;;;;;10.25;3.92;;;;;;;4.24;67.31;98153.34;4986609;28;103339;-68
2023/11/25 10:35:28;;;;;;;9.43;3.70;;;;;;;4.25;67.69;98139.28;4976432;28;103201;-70
2023/11/25 10:37:56;;;;;;;11.75;3.95;;;;;;;4.11;67.25;98130.91;4982366;28;103698;-70
2023/11/25 10:40:27;;;;;;;13.10;4.38;;;;;;;4.24;68.00;98132.38;4985904;28;102678;-68
2023/11/25 10:42:56;;;;;;;13.68;3.95;;;;;;;4.38;66.90;98121.44;4983029;28;103300;-67
2023/11/25 10:45:27;;;;;;;8.27;3.95;;;;;;;4.02;67.71;98115.16;4979636;28;103248;-71
2023/11/25 10:47:58;;;;;;;10.18;3.55;;;;;;;4.21;67.77;98124.81;4984146;28;102918;-69
2023/11/25 10:50:26;;;;;;;12.85;4.50;;;;;;;4.28;67.26;98118.84;4956785;28;104129;-70
2023/11/25 10:52:58;;;;;;;8.82;3.10;;;;;;;4.48;67.28;98106.50;4976345;28;103291;-70
2023/11/25 10:55:28;;;;;;;9.75;4.05;;;;;;;4.73;66.25;98098.94;4976108;28;103801;-70
2023/11/25 10:57:59;;;;;;;9.80;3.47;;;;;;;5.01;66.11;98090.22;4974467;28;102952;-70
2023/11/25 11:00:29;;;;;;;11.93;3.70;;;;;;;4.95;66.28;98096.88;4979557;28;103432;-70
2023/11/25 11:03:01;;;;;;;10.18;4.05;;;;;;;4.63;66.02;98095.53;4980060;28;103386;-70
2023/11/25 11:05:37;;;;;;;9.23;3.25;;;;;;;4.59;66.48;98094.97;4980442;28;103190;-70
2023/11/25 11:08:09;;;;;;;11.13;4.78;;;;;;;4.52;65.44;98103.56;4979037;28;102663;-70
2023/11/25 11:10:48;;;;;;;14.73;3.67;;;;;;;4.52;65.90;98095.72;4959857;28;102792;-70
2023/11/25 11:13:22;;;;;;;10.65;3.53;;;;;;;4.40;65.30;98090.66;4959095;28;104237;-70
2023/11/25 11:15:53;;;;;;;7.97;3.20;;;;;;;4.39;65.38;98089.00;4979633;28;103245;-70
2023/11/25 11:18:25;;;;;;;14.77;4.20;;;;;;;4.45;65.89;98093.69;4974303;28;102964;-68
2023/11/25 11:20:55;;;;;;;11.85;4.40;;;;;;;4.63;65.38;98090.28;4981099;28;102720;-68
2023/11/25 11:23:27;;;;;;;11.40;4.10;;;;;;;4.94;64.52;98095.25;4976821;28;103220;-69
2023/11/25 11:26:01;;;;;;;11.57;3.88;;;;;;;4.86;64.57;98088.09;4979477;28;103259;-68
2023/11/25 11:28:39;;;;;;;9.57;3.42;;;;;;;4.91;64.79;98090.28;4981196;28;102635;-68
2023/11/25 11:31:46;;;;;;;12.23;3.67;;;;;;;4.81;65.73;98088.53;4980584;28;102681;-68
2023/11/25 11:34:14;;;;;;;12.07;4.22;;;;;;;4.56;65.73;98095.28;4971951;28;103393;-69
2023/11/25 11:36:42;;;;;;;12.18;3.78;;;;;;;4.46;67.35;98090.06;4980195;28;103271;-69
2023/11/25 11:39:32;;;;;;;9.40;4.22;;;;;;;4.28;68.05;98099.66;4984386;28;102545;-68
2023/11/25 11:42:25;;;;;;;8.93;3.03;;;;;;;4.43;68.42;98098.22;4984508;28;103199;-69
2023/11/25 11:44:59;;;;;;;7.30;2.95;;;;;;;4.04;69.08;98092.28;4956237;28;104123;-65
2023/11/25 11:47:27;;;;;;;8.00;3.13;;;;;;;3.90;70.02;98107.44;4970507;28;103192;-66
2023/11/25 11:49:56;;;;;;;10.63;3.08;;;;;;;3.75;72.00;98096.59;4959794;28;102799;-67